createdAt,value
2022-11-16T00:01:45.845Z,99706.64
2022-11-16T00:04:16.300Z,99706.02
2022-11-16T00:06:46.910Z,99701.63
2022-11-16T00:09:23.595Z,99695.01
2022-11-16T00:11:55.787Z,99695.36
2022-11-16T00:14:28.563Z,99694.36
2022-11-16T00:16:59.705Z,99695.11
2022-11-16T00:19:30.674Z,99694.52
2022-11-16T00:22:01.659Z,99698.54
2022-11-16T00:24:32.070Z,99694.77
2022-11-16T00:27:03.040Z,99695.77
2022-11-16T00:29:33.521Z,99694.45
2022-11-16T00:32:04.613Z,99697.11
2022-11-16T00:34:35.468Z,99695.55
2022-11-16T00:37:05.807Z,99697.09
2022-11-16T00:39:36.395Z,99699.15
2022-11-16T00:42:06.821Z,99693.33
2022-11-16T00:44:37.911Z,99695.39
2022-11-16T00:47:08.843Z,99694.63
2022-11-16T00:49:39.474Z,99694.98
2022-11-16T00:52:10.007Z,99693.88
2022-11-16T00:54:40.486Z,99688.75
2022-11-16T00:57:10.932Z,99689.63
2022-11-16T00:59:41.356Z,99688.06
2022-11-16T01:02:11.753Z,99685.88
2022-11-16T01:04:42.524Z,99677.15
2022-11-16T01:07:12.922Z,99667.83
2022-11-16T01:09:43.804Z,99663.80
2022-11-16T01:12:14.416Z,99661.09
2022-11-16T01:14:47.790Z,99659.56
2022-11-16T01:17:18.180Z,99656.59
2022-11-16T01:19:48.710Z,99656.04
2022-11-16T01:22:19.122Z,99654.95
2022-11-16T01:24:50.063Z,99657.75
2022-11-16T01:27:20.624Z,99655.40
2022-11-16T01:29:51.425Z,99656.14
2022-11-16T01:32:22.013Z,99659.06
2022-11-16T01:34:52.587Z,99653.30
2022-11-16T01:37:23.395Z,99649.64
2022-11-16T01:39:53.989Z,99647.45
2022-11-16T01:42:26.218Z,99640.61
2022-11-16T01:45:03.516Z,99639.34
2022-11-16T01:47:34.425Z,99638.30
2022-11-16T01:50:12.083Z,99633.69
2022-11-16T01:52:48.916Z,99628.84
2022-11-16T01:55:19.658Z,99628.92
2022-11-16T01:57:50.993Z,99630.58
2022-11-16T02:00:22.011Z,99622.72
2022-11-16T02:02:52.709Z,99618.40
2022-11-16T02:05:30.972Z,99613.86
2022-11-16T02:08:38.468Z,99615.05
2022-11-16T02:11:18.838Z,99610.95
2022-11-16T02:14:00.923Z,99611.33
2022-11-16T02:16:40.283Z,99605.49
2022-11-16T02:19:40.720Z,99605.34
2022-11-16T02:22:24.020Z,99599.02
2022-11-16T02:25:03.872Z,99593.11
2022-11-16T02:27:53.777Z,99589.54
2022-11-16T02:30:24.922Z,99586.20
2022-11-16T02:33:02.480Z,99586.33
2022-11-16T02:35:37.628Z,99583.52
2022-11-16T02:38:12.163Z,99589.88
2022-11-16T02:40:48.745Z,99596.65
2022-11-16T02:43:36.138Z,99597.61
2022-11-16T02:46:10.080Z,99596.75
2022-11-16T02:48:45.381Z,99599.02
2022-11-16T02:51:17.044Z,99596.48
2022-11-16T02:54:00.585Z,99592.35
2022-11-16T02:56:31.334Z,99590.15
2022-11-16T02:59:02.145Z,99590.31
2022-11-16T03:01:38.123Z,99591.20
2022-11-16T03:04:15.388Z,99588.08
2022-11-16T03:06:47.978Z,99589.07
2022-11-16T03:09:23.154Z,99589.59
2022-11-16T03:12:00.931Z,99589.70
2022-11-16T03:14:37.816Z,99592.54
2022-11-16T03:17:14.158Z,99594.33
2022-11-16T03:19:50.337Z,99594.70
2022-11-16T03:22:25.776Z,99597.45
2022-11-16T03:24:56.840Z,99601.38
2022-11-16T03:27:36.324Z,99601.84
2022-11-16T03:30:09.973Z,99602.64
2022-11-16T03:32:46.735Z,99598.27
2022-11-16T03:35:22.505Z,99602.51
2022-11-16T03:37:57.313Z,99604.45
2022-11-16T03:40:31.748Z,99607.21
2022-11-16T03:43:04.114Z,99614.06
2022-11-16T03:45:35.453Z,99612.43
2022-11-16T03:48:07.259Z,99610.64
2022-11-16T03:50:38.055Z,99613.18
2022-11-16T03:53:08.861Z,99611.10
2022-11-16T03:55:39.808Z,99613.27
2022-11-16T03:58:10.447Z,99613.20
2022-11-16T04:00:41.202Z,99615.20
2022-11-16T04:03:12.116Z,99612.52
2022-11-16T04:06:00.456Z,99613.66
2022-11-16T04:08:48.446Z,99617.03
2022-11-16T04:11:40.491Z,99620.01
2022-11-16T04:14:33.675Z,99622.80
2022-11-16T04:17:21.964Z,99627.02
2022-11-16T04:20:10.121Z,99632.89
2022-11-16T04:23:10.143Z,99631.82
2022-11-16T04:25:45.044Z,99634.29
2022-11-16T04:28:17.197Z,99637.05
2022-11-16T04:31:08.323Z,99637.64
2022-11-16T04:33:56.811Z,99638.78
2022-11-16T04:36:45.171Z,99634.27
2022-11-16T04:39:16.047Z,99637.42
2022-11-16T04:42:03.820Z,99642.40
2022-11-16T04:44:48.926Z,99635.88
2022-11-16T04:47:19.579Z,99636.36
2022-11-16T04:49:49.938Z,99632.73
2022-11-16T04:52:20.292Z,99628.31
2022-11-16T04:54:50.657Z,99634.54
2022-11-16T04:57:21.011Z,99639.44
2022-11-16T04:59:51.311Z,99645.59
2022-11-16T05:02:22.428Z,99646.00
2022-11-16T05:04:52.823Z,99648.00
2022-11-16T05:07:23.939Z,99650.95
2022-11-16T05:09:54.724Z,99649.34
2022-11-16T05:12:26.757Z,99645.73
2022-11-16T05:14:58.384Z,99645.55
2022-11-16T05:17:29.761Z,99645.36
2022-11-16T05:20:17.928Z,99646.25
2022-11-16T05:22:55.158Z,99642.55
2022-11-16T05:25:25.754Z,99640.38
2022-11-16T05:27:56.536Z,99639.21
2022-11-16T05:30:28.678Z,99637.55
2022-11-16T05:32:59.398Z,99635.41
2022-11-16T05:35:30.058Z,99634.40
2022-11-16T05:38:01.002Z,99640.40
2022-11-16T05:40:32.880Z,99647.07
2022-11-16T05:43:03.525Z,99646.32
2022-11-16T05:45:34.277Z,99644.41
2022-11-16T05:48:04.825Z,99650.09
2022-11-16T05:50:41.311Z,99650.52
2022-11-16T05:53:13.121Z,99656.56
2022-11-16T05:55:43.648Z,99653.63
2022-11-16T05:58:14.464Z,99651.96
2022-11-16T06:00:46.842Z,99652.67
2022-11-16T06:03:17.622Z,99659.35
2022-11-16T06:05:48.192Z,99653.70
2022-11-16T06:08:18.608Z,99658.31
2022-11-16T06:10:49.353Z,99657.69
2022-11-16T06:13:20.078Z,99656.29
2022-11-16T06:15:50.518Z,99659.18
2022-11-16T06:18:21.415Z,99657.56
2022-11-16T06:20:52.011Z,99659.58
2022-11-16T06:23:23.013Z,99657.16
2022-11-16T06:25:57.120Z,99655.31
2022-11-16T06:28:28.768Z,99658.34
2022-11-16T06:30:59.226Z,99654.33
2022-11-16T06:33:33.526Z,99657.70
2022-11-16T06:36:05.604Z,99655.41
2022-11-16T06:38:36.298Z,99652.92
2022-11-16T06:41:07.160Z,99652.27
2022-11-16T06:43:37.515Z,99654.02
2022-11-16T06:46:08.164Z,99661.92
2022-11-16T06:48:38.575Z,99664.06
2022-11-16T06:51:09.901Z,99667.35
2022-11-16T06:53:40.541Z,99662.19
2022-11-16T06:56:14.507Z,99673.10
2022-11-16T06:58:44.966Z,99670.88
2022-11-16T07:01:15.780Z,99672.04
2022-11-16T07:03:46.366Z,99668.89
2022-11-16T07:06:17.167Z,99671.48
2022-11-16T07:08:47.630Z,99673.72
2022-11-16T07:11:18.466Z,99675.21
2022-11-16T07:13:49.460Z,99677.17
2022-11-16T07:16:19.876Z,99677.95
2022-11-16T07:18:50.662Z,99674.25
2022-11-16T07:21:21.709Z,99678.02
2022-11-16T07:23:52.496Z,99682.91
2022-11-16T07:26:22.853Z,99678.17
2022-11-16T07:28:53.332Z,99675.74
2022-11-16T07:31:24.132Z,99676.52
2022-11-16T07:33:55.550Z,99672.28
2022-11-16T07:36:25.958Z,99677.60
2022-11-16T07:38:57.007Z,99677.64
2022-11-16T07:41:27.518Z,99674.98
2022-11-16T07:43:58.011Z,99678.38
2022-11-16T07:46:45.885Z,99678.91
2022-11-16T07:49:20.058Z,99679.12
2022-11-16T07:51:50.979Z,99679.59
2022-11-16T07:54:21.523Z,99682.36
2022-11-16T07:56:54.718Z,99684.30
2022-11-16T07:59:25.725Z,99684.92
2022-11-16T08:01:56.636Z,99681.73
2022-11-16T08:04:27.403Z,99680.97
2022-11-16T08:06:58.167Z,99682.39
2022-11-16T08:09:28.629Z,99677.65
2022-11-16T08:11:59.050Z,99679.07
2022-11-16T08:14:29.441Z,99676.75
2022-11-16T08:17:00.360Z,99675.63
2022-11-16T08:19:31.355Z,99677.24
2022-11-16T08:22:01.794Z,99674.45
2022-11-16T08:24:32.185Z,99680.52
2022-11-16T08:27:02.574Z,99682.44
2022-11-16T08:29:33.461Z,99681.19
2022-11-16T08:32:04.073Z,99683.98
2022-11-16T08:34:35.863Z,99683.30
2022-11-16T08:37:06.644Z,99683.30
2022-11-16T08:39:37.077Z,99688.84
2022-11-16T08:42:07.666Z,99683.43
2022-11-16T08:44:38.421Z,99681.16
2022-11-16T08:47:08.970Z,99681.80
2022-11-16T08:49:41.985Z,99682.99
2022-11-16T08:52:15.956Z,99689.30
2022-11-16T08:54:47.176Z,99689.48
2022-11-16T08:57:18.225Z,99698.61
2022-11-16T08:59:49.485Z,99701.20
2022-11-16T09:02:25.439Z,99697.98
2022-11-16T09:04:56.127Z,99705.05
2022-11-16T09:07:26.666Z,99706.30
2022-11-16T09:09:57.471Z,99709.19
2022-11-16T09:12:28.205Z,99705.45
2022-11-16T09:14:58.910Z,99704.86
2022-11-16T09:17:29.346Z,99701.94
2022-11-16T09:19:59.922Z,99706.98
2022-11-16T09:22:30.358Z,99704.84
2022-11-16T09:25:00.773Z,99704.84
2022-11-16T09:27:31.263Z,99706.80
2022-11-16T09:30:02.267Z,99706.68
2022-11-16T09:32:32.659Z,99706.10
2022-11-16T09:35:03.062Z,99704.92
2022-11-16T09:37:33.785Z,99710.36
2022-11-16T09:40:04.523Z,99707.96
2022-11-16T09:42:53.601Z,99708.64
2022-11-16T09:45:32.273Z,99704.06
2022-11-16T09:48:07.350Z,99702.76
2022-11-16T09:50:47.078Z,99706.54
2022-11-16T09:53:33.438Z,99697.98
2022-11-16T09:56:08.165Z,99698.73
2022-11-16T09:58:44.985Z,99701.31
2022-11-16T10:01:24.766Z,99702.78
2022-11-16T10:04:01.388Z,99706.38
2022-11-16T10:06:42.966Z,99711.73
2022-11-16T10:09:14.866Z,99712.06
2022-11-16T10:12:12.041Z,99709.41
2022-11-16T10:15:12.922Z,99712.21
2022-11-16T10:18:00.189Z,99710.08
2022-11-16T10:20:50.048Z,99707.85
2022-11-16T10:23:34.114Z,99701.77
2022-11-16T10:26:16.795Z,99706.09
2022-11-16T10:29:00.637Z,99705.29
2022-11-16T10:31:41.488Z,99701.95
2022-11-16T10:34:20.652Z,99697.30
2022-11-16T10:36:51.014Z,99686.96
2022-11-16T10:39:23.275Z,99683.13
2022-11-16T10:41:54.169Z,99682.66
2022-11-16T10:44:34.149Z,99685.91
2022-11-16T10:47:07.115Z,99679.36
2022-11-16T10:49:42.980Z,99676.30
2022-11-16T10:52:13.414Z,99677.15
2022-11-16T10:54:44.522Z,99672.16
2022-11-16T10:57:15.306Z,99667.75
2022-11-16T10:59:47.410Z,99663.70
2022-11-16T11:02:35.729Z,99661.16
2022-11-16T11:05:17.360Z,99664.23
2022-11-16T11:07:54.156Z,99660.04
2022-11-16T11:10:32.830Z,99661.15
2022-11-16T11:13:18.982Z,99657.30
2022-11-16T11:15:51.335Z,99659.43
2022-11-16T11:18:29.953Z,99656.98
2022-11-16T11:21:19.113Z,99655.35
2022-11-16T11:23:51.550Z,99653.76
2022-11-16T11:26:37.128Z,99656.70
2022-11-16T11:29:21.732Z,99657.59
2022-11-16T11:31:54.194Z,99658.89
2022-11-16T11:34:27.826Z,99660.45
2022-11-16T11:37:02.730Z,99658.61
2022-11-16T11:39:35.522Z,99659.59
2022-11-16T11:42:23.979Z,99657.91
2022-11-16T11:44:58.700Z,99654.58
2022-11-16T11:47:57.490Z,99652.48
2022-11-16T11:50:38.088Z,99651.19
2022-11-16T11:53:16.839Z,99650.45
2022-11-16T11:55:47.286Z,99654.91
2022-11-16T11:58:21.939Z,99656.32
2022-11-16T12:01:07.812Z,99658.93
2022-11-16T12:04:13.191Z,99653.95
2022-11-16T12:06:49.621Z,99654.30
2022-11-16T12:09:36.789Z,99652.48
2022-11-16T12:12:24.711Z,99652.60
2022-11-16T12:15:27.415Z,99649.73
2022-11-16T12:18:08.999Z,99645.55
2022-11-16T12:20:50.256Z,99646.95
2022-11-16T12:23:45.192Z,99644.25
2022-11-16T12:26:29.309Z,99645.40
2022-11-16T12:29:13.900Z,99645.31
2022-11-16T12:32:02.159Z,99643.61
2022-11-16T12:34:46.282Z,99650.05
2022-11-16T12:37:22.370Z,99655.27
2022-11-16T12:40:18.312Z,99654.46
2022-11-16T12:42:59.682Z,99658.09
2022-11-16T12:45:45.889Z,99656.40
2022-11-16T12:48:38.945Z,99658.70
2022-11-16T12:51:19.537Z,99657.48
2022-11-16T12:54:09.821Z,99652.10
2022-11-16T12:56:49.759Z,99653.03
2022-11-16T12:59:45.814Z,99659.58
2022-11-16T13:02:27.680Z,99653.16
2022-11-16T13:05:04.007Z,99654.33
2022-11-16T13:07:42.134Z,99656.35
2022-11-16T13:10:19.557Z,99654.38
2022-11-16T13:13:09.099Z,99654.48
2022-11-16T13:15:47.792Z,99650.63
2022-11-16T13:18:22.544Z,99649.98
2022-11-16T13:20:59.865Z,99649.02
2022-11-16T13:23:42.079Z,99648.12
2022-11-16T13:26:20.409Z,99647.91
2022-11-16T13:28:58.030Z,99647.98
2022-11-16T13:31:34.870Z,99646.63
2022-11-16T13:34:14.540Z,99641.31
2022-11-16T13:36:47.740Z,99644.95
2022-11-16T13:39:22.957Z,99642.39
2022-11-16T13:42:08.693Z,99640.81
2022-11-16T13:44:39.792Z,99640.31
2022-11-16T13:47:24.728Z,99634.25
2022-11-16T13:49:59.554Z,99632.15
2022-11-16T13:55:39.629Z,99632.40
2022-11-16T13:58:13.971Z,99631.60
2022-11-16T14:00:55.342Z,99628.23
2022-11-16T14:03:38.617Z,99627.21
2022-11-16T14:06:46.585Z,99626.00
2022-11-16T14:09:47.428Z,99627.26
2022-11-16T14:12:52.756Z,99626.43
2022-11-16T14:15:25.491Z,99625.92
2022-11-16T14:17:59.982Z,99622.67
2022-11-16T14:20:50.339Z,99622.41
2022-11-16T14:23:36.057Z,99622.92
2022-11-16T14:26:19.773Z,99626.10
2022-11-16T14:29:08.360Z,99628.69
2022-11-16T14:31:53.271Z,99630.02
2022-11-16T14:34:29.156Z,99628.60
2022-11-16T14:37:00.604Z,99623.86
2022-11-16T14:39:34.217Z,99628.59
2022-11-16T14:42:08.020Z,99628.60
2022-11-16T14:44:41.426Z,99629.98
2022-11-16T14:47:23.903Z,99635.35
2022-11-16T14:49:55.200Z,99632.11
2022-11-16T14:52:36.256Z,99632.58
2022-11-16T14:55:09.551Z,99631.80
2022-11-16T14:57:39.972Z,99627.61
2022-11-16T15:00:18.997Z,99625.79
2022-11-16T15:02:54.380Z,99622.98
2022-11-16T15:05:33.778Z,99620.27
2022-11-16T15:08:09.061Z,99620.14
2022-11-16T15:10:48.152Z,99617.02
2022-11-16T15:13:25.133Z,99615.37
2022-11-16T15:16:16.728Z,99619.13
2022-11-16T15:19:00.496Z,99616.21
2022-11-16T15:21:31.429Z,99622.29
2022-11-16T15:24:28.701Z,99615.07
2022-11-16T15:26:52.889Z,99615.73
2022-11-16T15:29:25.431Z,99615.19
2022-11-16T15:31:55.818Z,99617.06
2022-11-16T15:34:26.672Z,99617.70
2022-11-16T15:36:57.064Z,99619.98
2022-11-16T15:39:33.828Z,99618.83
2022-11-16T15:42:05.268Z,99614.90
2022-11-16T15:44:36.280Z,99614.69
2022-11-16T15:47:06.812Z,99614.70
2022-11-16T15:49:39.506Z,99619.77
2022-11-16T15:52:10.645Z,99623.01
2022-11-16T15:54:58.717Z,99626.64
2022-11-16T15:57:29.562Z,99628.69
2022-11-16T16:00:00.533Z,99633.96
2022-11-16T16:02:33.223Z,99638.61
2022-11-16T16:05:03.989Z,99641.84
2022-11-16T16:07:42.785Z,99638.08
2022-11-16T16:10:25.731Z,99635.20
2022-11-16T16:12:57.571Z,99634.73
2022-11-16T16:15:30.841Z,99636.61
2022-11-16T16:18:02.076Z,99639.38
2022-11-16T16:20:34.837Z,99634.05
2022-11-16T16:23:15.802Z,99630.29
2022-11-16T16:25:50.478Z,99632.05
2022-11-16T16:28:21.550Z,99631.30
2022-11-16T16:30:54.872Z,99631.75
2022-11-16T16:33:28.614Z,99634.61
2022-11-16T16:35:59.098Z,99631.34
2022-11-16T16:38:30.421Z,99629.01
2022-11-16T16:41:03.652Z,99632.14
2022-11-16T16:43:34.907Z,99631.92
2022-11-16T16:46:06.733Z,99632.17
2022-11-16T16:48:43.298Z,99628.85
2022-11-16T16:51:14.203Z,99628.36
2022-11-16T16:53:45.270Z,99634.27
2022-11-16T16:56:19.649Z,99633.40
2022-11-16T16:58:50.445Z,99633.36
2022-11-16T17:01:21.181Z,99630.18
2022-11-16T17:03:51.647Z,99625.50
2022-11-16T17:06:22.140Z,99627.70
2022-11-16T17:08:53.205Z,99628.51
2022-11-16T17:11:23.963Z,99629.96
2022-11-16T17:13:54.729Z,99629.46
2022-11-16T17:16:25.365Z,99625.73
2022-11-16T17:18:57.916Z,99629.89
2022-11-16T17:21:28.473Z,99636.92
2022-11-16T17:23:59.096Z,99641.27
2022-11-16T17:26:30.204Z,99649.39
2022-11-16T17:29:01.076Z,99651.02
2022-11-16T17:31:31.440Z,99649.69
2022-11-16T17:34:02.235Z,99645.04
2022-11-16T17:36:33.636Z,99640.01
2022-11-16T17:39:04.778Z,99640.43
2022-11-16T17:41:35.775Z,99636.92
2022-11-16T17:44:07.320Z,99638.77
2022-11-16T17:46:37.946Z,99645.99
2022-11-16T17:49:09.311Z,99645.27
2022-11-16T17:51:39.822Z,99639.98
2022-11-16T17:54:10.389Z,99638.21
2022-11-16T17:56:41.409Z,99629.77
2022-11-16T17:59:11.990Z,99624.45
2022-11-16T18:01:42.507Z,99627.09
2022-11-16T18:04:13.393Z,99626.64
2022-11-16T18:06:44.103Z,99629.20
2022-11-16T18:09:14.819Z,99628.02
2022-11-16T18:11:45.592Z,99629.52
2022-11-16T18:14:16.236Z,99629.98
2022-11-16T18:16:48.084Z,99628.11
2022-11-16T18:19:20.147Z,99624.61
2022-11-16T18:21:50.634Z,99627.61
2022-11-16T18:24:21.210Z,99629.39
2022-11-16T18:26:52.237Z,99632.87
2022-11-16T18:29:22.634Z,99630.86
2022-11-16T18:31:53.731Z,99626.86
2022-11-16T18:34:24.267Z,99625.05
2022-11-16T18:36:56.208Z,99630.38
2022-11-16T18:39:26.788Z,99633.79
2022-11-16T18:41:57.655Z,99633.25
2022-11-16T18:44:28.525Z,99622.72
2022-11-16T18:46:58.856Z,99618.45
2022-11-16T18:49:29.334Z,99617.11
2022-11-16T18:52:00.062Z,99618.00
2022-11-16T18:54:30.750Z,99618.64
2022-11-16T18:57:01.258Z,99616.30
2022-11-16T18:59:31.662Z,99610.74
2022-11-16T19:02:02.038Z,99613.08
2022-11-16T19:04:32.456Z,99612.50
2022-11-16T19:07:03.716Z,99617.17
2022-11-16T19:09:34.545Z,99612.38
2022-11-16T19:12:05.415Z,99611.16
2022-11-16T19:14:35.868Z,99613.30
2022-11-16T19:17:06.217Z,99612.41
2022-11-16T19:19:36.661Z,99612.04
2022-11-16T19:22:07.366Z,99612.24
2022-11-16T19:24:37.722Z,99617.26
2022-11-16T19:27:08.455Z,99623.67
2022-11-16T19:29:38.883Z,99624.66
2022-11-16T19:32:09.690Z,99627.34
2022-11-16T19:34:40.158Z,99628.64
2022-11-16T19:37:11.703Z,99620.98
2022-11-16T19:39:42.994Z,99616.69
2022-11-16T19:42:13.383Z,99610.79
2022-11-16T19:44:43.796Z,99608.58
2022-11-16T19:47:14.283Z,99604.39
2022-11-16T19:49:46.160Z,99600.29
2022-11-16T19:52:16.510Z,99600.20
2022-11-16T19:54:47.194Z,99595.35
2022-11-16T19:57:20.480Z,99596.98
2022-11-16T19:59:51.212Z,99595.55
2022-11-16T20:02:21.628Z,99596.48
2022-11-16T20:04:53.360Z,99594.60
2022-11-16T20:07:23.865Z,99595.80
2022-11-16T20:09:55.123Z,99599.04
2022-11-16T20:12:25.581Z,99600.25
2022-11-16T20:14:56.797Z,99592.84
2022-11-16T20:17:27.256Z,99587.63
2022-11-16T20:19:57.826Z,99582.69
2022-11-16T20:22:28.613Z,99581.15
2022-11-16T20:24:59.562Z,99583.79
2022-11-16T20:27:30.364Z,99587.51
2022-11-16T20:30:06.461Z,99596.91
2022-11-16T20:32:40.277Z,99601.86
2022-11-16T20:35:16.177Z,99598.86
2022-11-16T20:37:49.998Z,99594.43
2022-11-16T20:40:24.409Z,99590.20
2022-11-16T20:42:59.093Z,99591.77
2022-11-16T20:45:32.797Z,99598.11
2022-11-16T20:48:04.267Z,99605.48
2022-11-16T20:50:35.339Z,99608.02
2022-11-16T20:53:06.534Z,99608.69
2022-11-16T20:55:37.833Z,99610.73
2022-11-16T20:58:08.557Z,99610.98
2022-11-16T21:00:44.891Z,99613.15
2022-11-16T21:03:18.487Z,99618.67
2022-11-16T21:05:53.467Z,99620.55
2022-11-16T21:08:30.535Z,99621.52
2022-11-16T21:11:02.325Z,99625.52
2022-11-16T21:13:52.948Z,99618.46
2022-11-16T21:16:24.580Z,99620.13
2022-11-16T21:18:57.160Z,99619.72
2022-11-16T21:21:31.615Z,99615.33
2022-11-16T21:24:03.514Z,99613.45
2022-11-16T21:26:37.648Z,99609.98
2022-11-16T21:29:09.768Z,99604.30
2022-11-16T21:31:46.411Z,99597.70
2022-11-16T21:34:20.399Z,99593.44
2022-11-16T21:36:54.130Z,99589.05
2022-11-16T21:39:27.447Z,99581.83
2022-11-16T21:41:59.882Z,99585.70
2022-11-16T21:44:42.132Z,99588.02
2022-11-16T21:47:14.254Z,99590.14
2022-11-16T21:50:08.604Z,99590.09
2022-11-16T21:52:38.215Z,99592.92
2022-11-16T21:55:11.253Z,99585.53
2022-11-16T21:57:42.473Z,99580.27
2022-11-16T22:00:16.133Z,99580.23
2022-11-16T22:02:48.409Z,99578.43
2022-11-16T22:05:38.033Z,99581.17
2022-11-16T22:08:13.058Z,99586.02
2022-11-16T22:10:44.602Z,99594.05
2022-11-16T22:13:15.305Z,99597.66
2022-11-16T22:15:46.351Z,99595.19
2022-11-16T22:18:16.743Z,99593.34
2022-11-16T22:20:50.329Z,99594.18
2022-11-16T22:23:24.429Z,99593.90
2022-11-16T22:25:55.083Z,99584.98
2022-11-16T22:28:25.837Z,99577.98
2022-11-16T22:31:03.379Z,99576.89
2022-11-16T22:33:35.397Z,99575.55
2022-11-16T22:36:08.290Z,99568.78
2022-11-16T22:38:38.914Z,99559.64
2022-11-16T22:41:09.947Z,99554.86
2022-11-16T22:43:40.778Z,99548.21
2022-11-16T22:46:12.031Z,99546.50
2022-11-16T22:48:43.704Z,99545.79
2022-11-16T22:51:21.218Z,99542.33
2022-11-16T22:53:55.227Z,99543.71
2022-11-16T22:56:26.364Z,99537.98
2022-11-16T22:58:57.695Z,99536.35
2022-11-16T23:01:28.429Z,99531.50
2022-11-16T23:03:59.693Z,99530.75
2022-11-16T23:06:30.681Z,99527.41
2022-11-16T23:09:01.657Z,99531.76
2022-11-16T23:11:49.907Z,99538.30
2022-11-16T23:14:38.137Z,99539.44
2022-11-16T23:17:08.624Z,99541.32
2022-11-16T23:19:57.341Z,99538.39
2022-11-16T23:22:45.462Z,99538.64
2022-11-16T23:25:33.657Z,99537.22
2022-11-16T23:28:07.887Z,99528.86
2022-11-16T23:30:39.791Z,99521.71
2022-11-16T23:33:10.730Z,99519.34
2022-11-16T23:35:41.126Z,99517.52
2022-11-16T23:38:11.927Z,99513.70
2022-11-16T23:40:42.864Z,99509.48
2022-11-16T23:43:31.122Z,99505.84
2022-11-16T23:46:02.017Z,99499.58
2022-11-16T23:48:33.390Z,99500.41
2022-11-16T23:51:03.883Z,99498.02
2022-11-16T23:53:34.904Z,99498.33
2022-11-16T23:56:06.413Z,99494.52
2022-11-16T23:58:37.538Z,99491.02
